SAZT/TDL METAR and TAF weather

Enter ICAO airport designator
Station Type Date Time Source
SAZT METAR 2019/02/23 12:25 UTC NOAA

SAZT 231225Z 09004KT 1500 FG VV/// 15/15 Q1010


Station Type Date Time Source
SAZT Decoded METAR 2019/02/23 12:25 UTC NOAA

Tandil Aerodrome, Argentina (SAZT) 37-14S 059-15W 175M
Feb 23, 2019 - 07:25 AM EST / 2019.02.23 1225 UTC
Wind: from the E (090 degrees) at 5 MPH (4 KT):0
Visibility: less than 1 mile:0
Sky conditions: obscured
Weather: fog
Temperature: 59 F (15 C)
Dew Point: 59 F (15 C)
Relative Humidity: 100%
Pressure (altimeter): 29.83 in. Hg (1010 hPa)
ob: SAZT 231225Z 09004KT 1500 FG VV/// 15/15 Q1010
cycle: 12

Station Type Date Time Source
SAZT TAF UTC NOAA

Error!


Example: see airport list